Time;durP1;ratioP1;P1;durP2;ratioP2;P2;SDS_P1;SDS_P2;PMS_P1;PMS_P2;Temp;Humidity;BMP_temperature;BMP_pressure;BME280_temperature;BME280_humidity;BME280_pressure;Samples;Min_cycle;Max_cycle;Signal;HPM_P1;HPM_P2
2023/06/25 00:01:03;;;;;;;4.40;3.42;;;18.70;55.40;;;;;;5042058;28;20071;-62
2023/06/25 00:03:28;;;;;;;6.43;3.60;;;18.70;55.50;;;;;;5041137;28;20056;-62
2023/06/25 00:05:54;;;;;;;4.60;3.25;;;18.60;55.90;;;;;;5041460;28;20117;-63
2023/06/25 00:08:20;;;;;;;4.82;3.90;;;18.60;56.10;;;;;;5041174;28;20092;-62
2023/06/25 00:10:45;;;;;;;7.20;4.25;;;18.60;56.10;;;;;;5041845;28;20029;-61
2023/06/25 00:13:11;;;;;;;6.85;3.70;;;18.60;56.30;;;;;;5041140;28;20104;-62
2023/06/25 00:15:36;;;;;;;6.43;3.92;;;18.60;56.30;;;;;;5040572;28;20025;-62
2023/06/25 00:18:02;;;;;;;5.38;3.85;;;18.60;56.20;;;;;;5041799;28;20106;-61
2023/06/25 00:20:28;;;;;;;5.85;4.55;;;18.50;56.40;;;;;;5040759;28;20026;-62
2023/06/25 00:22:54;;;;;;;5.57;4.25;;;18.50;56.50;;;;;;5041058;28;20035;-61
2023/06/25 00:25:19;;;;;;;5.35;4.15;;;18.50;56.60;;;;;;5041343;28;20048;-62
2023/06/25 00:27:48;;;;;;;6.78;4.07;;;18.40;56.60;;;;;;5040484;28;20033;-61
2023/06/25 00:30:17;;;;;;;4.50;3.50;;;18.40;56.80;;;;;;5040694;28;20022;-62
2023/06/25 00:32:45;;;;;;;5.53;3.85;;;18.30;57.20;;;;;;5036192;28;20036;-63
2023/06/25 00:35:12;;;;;;;6.40;4.00;;;18.30;57.20;;;;;;5041959;28;20031;-63
2023/06/25 00:37:40;;;;;;;6.85;3.42;;;18.30;57.10;;;;;;5037547;28;20028;-62
2023/06/25 00:40:08;;;;;;;5.75;3.70;;;18.30;57.00;;;;;;5040335;28;20045;-62
2023/06/25 00:42:41;;;;;;;5.85;3.50;;;18.20;57.00;;;;;;5040740;28;20044;-63
2023/06/25 00:45:09;;;;;;;8.27;3.80;;;18.20;57.50;;;;;;5040095;28;20025;-63
2023/06/25 00:47:35;;;;;;;4.57;3.60;;;18.10;57.10;;;;;;5041506;28;20041;-62
2023/06/25 00:50:02;;;;;;;4.53;3.60;;;18.10;57.10;;;;;;5037298;28;20060;-62
2023/06/25 00:52:29;;;;;;;4.45;3.95;;;18.10;57.20;;;;;;5040519;28;20028;-61
2023/06/25 00:54:55;;;;;;;5.00;3.50;;;18.00;57.30;;;;;;5040481;28;20037;-62
2023/06/25 00:57:21;;;;;;;4.28;3.78;;;18.00;57.40;;;;;;5042251;28;20202;-61
2023/06/25 00:59:48;;;;;;;4.97;3.80;;;17.90;57.50;;;;;;5040205;28;20013;-62
2023/06/25 01:02:38;;;;;;;5.45;3.75;;;17.90;57.70;;;;;;5040649;28;20069;-61
2023/06/25 01:05:21;;;;;;;5.50;3.78;;;17.90;58.90;;;;;;5024731;28;20037;-62
2023/06/25 01:07:49;;;;;;;5.70;3.85;;;17.80;58.10;;;;;;5029288;28;20052;-61
2023/06/25 01:10:15;;;;;;;5.85;4.40;;;17.80;57.80;;;;;;5045287;28;20017;-62
2023/06/25 01:12:42;;;;;;;5.10;3.78;;;17.80;57.90;;;;;;5044259;28;20032;-61
2023/06/25 01:15:09;;;;;;;5.97;3.78;;;17.80;58.00;;;;;;5026791;28;20033;-62
2023/06/25 01:17:36;;;;;;;6.07;3.92;;;17.80;58.00;;;;;;5044137;28;20084;-62
2023/06/25 01:20:04;;;;;;;4.85;3.75;;;17.70;58.10;;;;;;5045185;28;20078;-61
2023/06/25 01:22:31;;;;;;;5.97;4.20;;;17.70;58.10;;;;;;5043998;28;20037;-62
2023/06/25 01:24:58;;;;;;;6.43;4.07;;;17.60;58.40;;;;;;5039814;28;20050;-62
2023/06/25 01:27:24;;;;;;;5.13;3.83;;;17.60;58.50;;;;;;5043827;28;20026;-62
2023/06/25 01:29:50;;;;;;;5.18;3.80;;;17.60;58.50;;;;;;5045040;28;20022;-62
2023/06/25 01:32:17;;;;;;;4.68;3.67;;;17.60;58.50;;;;;;5043822;28;20108;-62
2023/06/25 01:34:43;;;;;;;6.03;4.00;;;17.60;58.50;;;;;;5043590;28;20022;-62
2023/06/25 01:37:09;;;;;;;5.32;3.92;;;17.50;58.50;;;;;;5044821;28;20044;-63
2023/06/25 01:39:35;;;;;;;5.07;3.63;;;17.50;58.70;;;;;;5040693;28;20026;-62
2023/06/25 01:42:01;;;;;;;4.70;3.97;;;17.50;58.50;;;;;;5043840;28;20387;-62
2023/06/25 01:44:28;;;;;;;6.00;4.10;;;17.50;58.70;;;;;;5021394;28;20144;-63
2023/06/25 01:46:55;;;;;;;5.65;3.97;;;17.40;58.70;;;;;;5044611;28;20021;-62
2023/06/25 01:49:21;;;;;;;6.03;4.00;;;17.40;58.70;;;;;;5043552;28;20120;-62
2023/06/25 01:51:47;;;;;;;5.68;4.03;;;17.40;58.70;;;;;;5043688;28;20037;-62
2023/06/25 01:54:13;;;;;;;6.68;4.22;;;17.30;58.70;;;;;;5043645;28;20033;-62
2023/06/25 01:56:38;;;;;;;6.00;4.30;;;17.30;58.90;;;;;;5044132;28;20028;-61
2023/06/25 01:59:04;;;;;;;4.57;4.07;;;17.30;58.90;;;;;;5044490;28;20037;-61
2023/06/25 02:01:30;;;;;;;4.50;3.80;;;17.30;58.90;;;;;;5042492;28;20040;-61
2023/06/25 02:03:56;;;;;;;5.45;3.95;;;17.20;58.90;;;;;;5041259;28;20060;-61
2023/06/25 02:06:22;;;;;;;5.95;4.20;;;17.20;59.00;;;;;;5043269;28;20025;-62
2023/06/25 02:08:47;;;;;;;6.07;3.88;;;17.20;58.90;;;;;;5043454;28;20034;-61
2023/06/25 02:11:13;;;;;;;4.50;3.70;;;17.10;58.80;;;;;;5043919;28;20040;-61
2023/06/25 02:13:39;;;;;;;4.82;3.53;;;17.10;58.90;;;;;;5043411;28;20025;-61
2023/06/25 02:16:04;;;;;;;5.00;3.85;;;17.00;58.90;;;;;;5043534;28;20029;-62
2023/06/25 02:18:31;;;;;;;5.65;4.22;;;17.00;59.20;;;;;;5042969;28;20072;-63
2023/06/25 02:20:57;;;;;;;4.53;3.72;;;17.00;59.30;;;;;;5044120;28;20056;-62
2023/06/25 02:23:22;;;;;;;8.02;3.88;;;16.90;59.40;;;;;;5043550;28;20029;-61
2023/06/25 02:25:49;;;;;;;5.13;4.07;;;16.90;59.30;;;;;;5046010;28;20077;-61
2023/06/25 02:28:15;;;;;;;5.13;3.70;;;16.90;59.40;;;;;;5048504;28;20040;-61
2023/06/25 02:30:41;;;;;;;4.55;3.53;;;16.90;59.40;;;;;;5043249;28;20128;-62
2023/06/25 02:33:06;;;;;;;6.90;3.50;;;16.80;59.40;;;;;;5043086;28;20036;-62
2023/06/25 02:35:32;;;;;;;4.78;4.28;;;16.80;59.50;;;;;;5042529;28;20032;-62
2023/06/25 02:37:57;;;;;;;5.25;3.80;;;16.80;59.50;;;;;;5043822;28;20384;-62
2023/06/25 02:40:27;;;;;;;5.28;3.58;;;16.80;59.50;;;;;;5042513;28;20025;-61
2023/06/25 02:42:53;;;;;;;7.88;3.97;;;16.70;59.50;;;;;;5042369;28;20056;-63
2023/06/25 02:45:18;;;;;;;6.80;3.70;;;16.70;59.60;;;;;;5043896;28;20033;-61
2023/06/25 02:47:44;;;;;;;7.57;4.30;;;16.70;59.70;;;;;;5042362;28;20531;-62
2023/06/25 02:50:10;;;;;;;7.25;3.90;;;16.70;59.70;;;;;;5042908;28;20116;-63
2023/06/25 02:52:35;;;;;;;4.90;3.67;;;16.70;59.80;;;;;;5042711;28;20424;-63
2023/06/25 02:55:01;;;;;;;4.55;3.67;;;16.70;59.90;;;;;;5043514;28;20035;-62
2023/06/25 02:57:29;;;;;;;6.43;3.90;;;16.60;59.90;;;;;;5037996;28;20036;-62
2023/06/25 02:59:55;;;;;;;5.53;4.40;;;16.60;60.00;;;;;;5042382;28;20029;-62
2023/06/25 03:02:21;;;;;;;5.50;4.20;;;16.60;60.00;;;;;;5043501;28;20056;-62
2023/06/25 03:04:47;;;;;;;5.82;3.72;;;16.60;60.00;;;;;;5042235;28;20484;-62
2023/06/25 03:07:12;;;;;;;4.28;3.80;;;16.50;59.90;;;;;;5038122;28;20038;-61
2023/06/25 03:09:38;;;;;;;5.95;3.97;;;16.50;60.00;;;;;;5041770;28;20021;-62
2023/06/25 03:12:04;;;;;;;5.13;4.13;;;16.50;60.20;;;;;;5043502;28;20473;-62
2023/06/25 03:14:30;;;;;;;4.78;3.78;;;16.50;60.30;;;;;;5042023;28;20033;-62
2023/06/25 03:16:56;;;;;;;4.90;3.85;;;16.40;60.40;;;;;;5042068;28;20053;-62
2023/06/25 03:19:22;;;;;;;5.03;3.80;;;16.40;60.30;;;;;;5043277;28;20022;-62
2023/06/25 03:21:47;;;;;;;4.95;3.85;;;16.40;60.40;;;;;;5041972;28;20026;-62
2023/06/25 03:24:13;;;;;;;4.47;3.65;;;16.40;60.50;;;;;;5041838;28;20017;-62
2023/06/25 03:26:39;;;;;;;7.93;3.95;;;16.40;60.50;;;;;;5043072;28;20041;-61
2023/06/25 03:29:05;;;;;;;3.95;3.42;;;16.30;60.50;;;;;;5043088;28;20018;-62
2023/06/25 03:31:30;;;;;;;4.63;3.85;;;16.30;60.50;;;;;;5024117;28;20053;-62
2023/06/25 03:33:56;;;;;;;5.18;3.50;;;16.30;60.40;;;;;;5042045;28;20030;-63
2023/06/25 03:36:22;;;;;;;9.73;4.10;;;16.30;60.20;;;;;;4973636;28;20036;-62
2023/06/25 03:38:47;;;;;;;3.92;3.40;;;16.30;60.20;;;;;;5037765;28;20028;-62
2023/06/25 03:41:13;;;;;;;4.53;3.65;;;16.30;60.40;;;;;;5041706;28;20025;-62
2023/06/25 03:43:39;;;;;;;8.77;4.32;;;16.30;60.30;;;;;;5042710;28;20045;-62
2023/06/25 03:46:05;;;;;;;5.25;3.83;;;16.30;60.50;;;;;;5041301;28;20041;-62
2023/06/25 03:48:30;;;;;;;4.63;3.47;;;16.20;60.70;;;;;;5041541;28;20083;-62
2023/06/25 03:50:56;;;;;;;5.95;4.03;;;16.20;60.80;;;;;;5042228;28;20099;-62
2023/06/25 03:53:22;;;;;;;5.32;3.70;;;16.20;60.80;;;;;;5041327;28;20093;-64
2023/06/25 03:55:47;;;;;;;4.53;3.67;;;16.20;60.70;;;;;;5041127;28;20433;-61
2023/06/25 03:58:13;;;;;;;4.30;3.78;;;16.20;60.90;;;;;;5038130;28;20140;-63
2023/06/25 04:00:39;;;;;;;5.93;3.90;;;16.20;61.00;;;;;;5034217;28;20021;-61
2023/06/25 04:03:05;;;;;;;6.22;4.05;;;16.20;61.10;;;;;;5041319;28;20037;-62
2023/06/25 04:05:31;;;;;;;6.10;3.97;;;16.20;61.20;;;;;;5040896;28;20025;-62
2023/06/25 04:07:56;;;;;;;9.10;4.63;;;16.20;61.30;;;;;;5041720;28;20037;-62
2023/06/25 04:10:22;;;;;;;5.85;3.88;;;16.30;61.40;;;;;;5041015;28;20076;-62
2023/06/25 04:12:48;;;;;;;6.28;3.90;;;16.30;61.30;;;;;;5041031;28;20029;-62
2023/06/25 04:15:13;;;;;;;6.78;4.22;;;16.30;61.10;;;;;;5041918;28;20075;-62
2023/06/25 04:17:40;;;;;;;4.93;3.95;;;16.40;61.30;;;;;;5040489;28;20037;-62
2023/06/25 04:20:07;;;;;;;6.25;4.20;;;16.40;61.40;;;;;;5041046;28;20416;-61
2023/06/25 04:22:33;;;;;;;8.82;4.07;;;16.50;61.40;;;;;;5040601;28;20033;-63
2023/06/25 04:24:58;;;;;;;6.45;4.18;;;16.60;61.50;;;;;;5041457;28;20052;-63
2023/06/25 04:27:24;;;;;;;10.60;4.22;;;16.60;61.30;;;;;;5022731;28;20037;-62
2023/06/25 04:29:50;;;;;;;5.90;4.00;;;16.70;61.40;;;;;;5040663;28;20051;-63
2023/06/25 04:32:17;;;;;;;4.82;3.80;;;16.70;61.20;;;;;;5041849;28;20028;-63
2023/06/25 04:34:42;;;;;;;5.05;4.00;;;16.80;61.20;;;;;;5037543;28;20026;-62
2023/06/25 04:37:08;;;;;;;5.53;4.07;;;16.90;61.10;;;;;;5039106;28;20396;-63
2023/06/25 04:39:33;;;;;;;5.05;4.10;;;17.00;61.20;;;;;;5040374;28;20080;-63
2023/06/25 04:41:59;;;;;;;6.70;3.90;;;17.00;61.00;;;;;;5040687;28;20021;-62
2023/06/25 04:44:25;;;;;;;6.70;4.22;;;17.10;60.90;;;;;;5040032;28;20030;-62
2023/06/25 04:46:51;;;;;;;5.10;3.45;;;17.20;60.80;;;;;;5040545;28;20026;-62
2023/06/25 04:49:17;;;;;;;5.63;3.97;;;17.30;60.60;;;;;;5041324;28;20031;-62
2023/06/25 04:51:46;;;;;;;5.18;3.83;;;17.40;60.80;;;;;;5040348;28;20028;-62
2023/06/25 04:54:12;;;;;;;7.35;4.22;;;17.40;61.00;;;;;;5035844;28;20041;-62
2023/06/25 04:56:38;;;;;;;7.07;3.80;;;17.60;60.80;;;;;;5040182;28;20034;-64
2023/06/25 04:59:03;;;;;;;5.22;4.05;;;17.60;60.80;;;;;;5041656;28;20017;-61
2023/06/25 05:01:29;;;;;;;9.88;4.50;;;17.70;60.80;;;;;;5040372;28;20102;-61
2023/06/25 05:03:54;;;;;;;6.88;4.13;;;17.80;60.80;;;;;;5040134;28;20037;-62
2023/06/25 05:06:20;;;;;;;6.07;3.67;;;18.00;60.60;;;;;;5041000;28;20085;-61
2023/06/25 05:08:46;;;;;;;6.68;4.30;;;18.00;60.30;;;;;;5040176;28;20033;-61
2023/06/25 05:11:11;;;;;;;5.43;3.78;;;18.20;60.30;;;;;;5040083;28;20021;-62
2023/06/25 05:13:38;;;;;;;4.97;3.63;;;18.30;60.10;;;;;;5033584;28;20030;-62
2023/06/25 05:16:04;;;;;;;5.28;3.85;;;18.40;59.90;;;;;;5039748;28;20067;-61
2023/06/25 05:18:30;;;;;;;4.88;4.20;;;18.50;59.90;;;;;;5040011;28;20017;-62
2023/06/25 05:20:56;;;;;;;4.55;3.67;;;18.60;59.80;;;;;;5040979;28;20053;-61
2023/06/25 05:23:21;;;;;;;5.93;4.07;;;18.80;59.60;;;;;;5036687;28;20021;-62
2023/06/25 05:25:47;;;;;;;5.28;4.10;;;18.80;59.60;;;;;;5039820;28;20075;-62
2023/06/25 05:28:13;;;;;;;4.82;4.05;;;19.00;59.40;;;;;;5040100;28;20087;-61
2023/06/25 05:30:38;;;;;;;5.63;4.15;;;19.10;59.30;;;;;;5040892;28;20026;-61
2023/06/25 05:33:04;;;;;;;5.57;4.43;;;19.20;59.10;;;;;;5036690;28;20029;-61
2023/06/25 05:35:30;;;;;;;10.85;4.22;;;19.40;59.10;;;;;;5042751;28;20028;-63
2023/06/25 05:37:59;;;;;;;5.60;4.07;;;19.50;58.90;;;;;;5041138;28;20034;-61
2023/06/25 05:40:27;;;;;;;6.28;4.35;;;19.60;59.20;;;;;;5025257;28;20032;-62
2023/06/25 05:42:54;;;;;;;5.05;4.18;;;19.80;58.70;;;;;;5041723;28;20515;-61
2023/06/25 05:45:20;;;;;;;6.78;4.10;;;19.90;58.30;;;;;;5041560;28;20063;-62
2023/06/25 05:47:46;;;;;;;6.75;4.35;;;20.00;58.20;;;;;;5039723;28;20052;-63
2023/06/25 05:50:12;;;;;;;6.05;4.35;;;20.20;58.00;;;;;;5039563;28;20532;-63
2023/06/25 05:52:38;;;;;;;5.93;4.25;;;20.30;57.80;;;;;;5040771;28;20071;-64
2023/06/25 05:55:04;;;;;;;5.60;4.22;;;20.50;57.20;;;;;;5043455;28;20094;-63
2023/06/25 05:57:30;;;;;;;5.57;4.40;;;20.60;56.50;;;;;;5043877;28;20025;-61
2023/06/25 05:59:55;;;;;;;5.63;4.05;;;20.70;55.90;;;;;;5044683;28;20048;-62
2023/06/25 06:02:21;;;;;;;6.68;4.63;;;20.90;55.40;;;;;;5039298;28;20084;-63
2023/06/25 06:04:46;;;;;;;4.82;4.00;;;21.00;55.10;;;;;;5043353;28;20081;-64
2023/06/25 06:07:12;;;;;;;10.38;4.78;;;21.20;54.90;;;;;;5044118;28;20037;-63
2023/06/25 06:09:38;;;;;;;8.02;5.15;;;21.30;54.50;;;;;;5043179;28;20088;-62
2023/06/25 06:12:04;;;;;;;5.97;5.03;;;21.50;54.00;;;;;;5039007;28;20033;-63
2023/06/25 06:14:30;;;;;;;10.25;5.25;;;21.70;53.50;;;;;;5043382;28;20032;-63
2023/06/25 06:16:56;;;;;;;6.93;4.90;;;21.80;53.30;;;;;;5026157;28;20030;-62
2023/06/25 06:19:22;;;;;;;8.45;5.40;;;22.00;52.90;;;;;;5043411;28;20071;-63
2023/06/25 06:21:47;;;;;;;7.93;5.95;;;22.10;52.90;;;;;;5024935;28;20392;-64
2023/06/25 06:24:13;;;;;;;6.43;5.53;;;22.30;52.90;;;;;;5021883;28;20029;-63
2023/06/25 06:26:38;;;;;;;7.75;5.78;;;22.40;52.50;;;;;;5043090;28;20093;-63
2023/06/25 06:29:05;;;;;;;6.22;5.20;;;22.50;52.40;;;;;;5038471;28;20030;-62
2023/06/25 06:31:32;;;;;;;6.30;5.32;;;22.60;52.20;;;;;;5043843;28;20044;-63
2023/06/25 06:33:58;;;;;;;8.23;5.78;;;22.70;51.90;;;;;;5043383;28;20075;-63
2023/06/25 06:36:23;;;;;;;6.97;5.00;;;22.90;51.10;;;;;;5042725;28;20381;-63
2023/06/25 06:38:50;;;;;;;8.57;5.75;;;23.00;51.30;;;;;;4933991;28;20056;-64
2023/06/25 06:41:15;;;;;;;6.80;5.07;;;23.10;51.00;;;;;;5043653;28;20033;-62
2023/06/25 06:43:41;;;;;;;7.40;5.55;;;23.20;50.80;;;;;;5042592;28;20068;-62
2023/06/25 06:46:07;;;;;;;26.50;5.95;;;23.40;50.60;;;;;;5042352;28;20029;-63
2023/06/25 06:48:32;;;;;;;8.30;5.57;;;23.50;50.30;;;;;;5043528;28;20045;-62
2023/06/25 06:50:58;;;;;;;9.57;5.93;;;23.60;50.30;;;;;;5042613;28;20026;-63
2023/06/25 06:53:25;;;;;;;9.00;6.10;;;23.70;50.00;;;;;;5042060;28;20377;-62
2023/06/25 06:55:52;;;;;;;9.55;6.30;;;23.80;49.80;;;;;;5038414;28;20025;-63
2023/06/25 06:58:18;;;;;;;7.53;5.90;;;23.90;49.30;;;;;;5043178;28;20021;-63
2023/06/25 07:00:43;;;;;;;8.60;6.22;;;24.00;49.30;;;;;;5038189;28;20037;-64
2023/06/25 07:03:09;;;;;;;8.75;6.40;;;24.10;48.90;;;;;;5042036;28;20114;-63
2023/06/25 07:05:35;;;;;;;8.75;5.47;;;24.20;48.20;;;;;;5042557;28;20126;-62
2023/06/25 07:08:01;;;;;;;13.82;5.93;;;24.30;48.50;;;;;;5042221;28;20041;-63
2023/06/25 07:10:27;;;;;;;7.22;5.82;;;24.40;48.40;;;;;;5041978;28;20018;-62
2023/06/25 07:12:53;;;;;;;8.13;6.05;;;24.50;48.30;;;;;;5042242;28;20056;-63
2023/06/25 07:15:18;;;;;;;8.93;5.63;;;24.50;48.30;;;;;;5042967;28;20136;-64
2023/06/25 07:17:44;;;;;;;8.52;6.03;;;24.70;48.30;;;;;;5042195;28;20033;-64
2023/06/25 07:20:10;;;;;;;8.85;5.78;;;24.70;48.20;;;;;;5041891;28;20021;-62
2023/06/25 07:22:38;;;;;;;7.03;5.88;;;24.90;47.90;;;;;;5042921;28;20026;-61
2023/06/25 07:25:03;;;;;;;6.15;5.00;;;24.90;47.80;;;;;;5023570;28;20053;-63
2023/06/25 07:27:29;;;;;;;7.75;6.22;;;25.00;47.80;;;;;;5041964;28;20067;-64
2023/06/25 07:29:55;;;;;;;7.20;5.60;;;25.10;45.60;;;;;;5041425;28;20029;-63
2023/06/25 07:32:21;;;;;;;9.30;6.22;;;25.20;46.60;;;;;;5042139;28;20428;-64
2023/06/25 07:34:47;;;;;;;8.90;5.32;;;25.30;46.60;;;;;;5041906;28;20079;-64
2023/06/25 07:37:12;;;;;;;7.93;5.50;;;25.40;46.00;;;;;;5041489;28;20028;-63
2023/06/25 07:39:38;;;;;;;7.65;5.50;;;25.50;46.20;;;;;;5042376;28;20072;-63
2023/06/25 07:42:04;;;;;;;7.40;5.47;;;25.60;46.20;;;;;;5041376;28;20125;-63
2023/06/25 07:44:30;;;;;;;8.13;5.90;;;25.70;46.30;;;;;;5041456;28;20060;-64
2023/06/25 07:46:55;;;;;;;7.47;5.72;;;25.80;46.00;;;;;;5042302;28;20017;-64
2023/06/25 07:49:21;;;;;;;6.28;5.30;;;26.00;45.90;;;;;;5041366;28;20029;-62
2023/06/25 07:51:53;;;;;;;6.95;5.57;;;26.10;46.00;;;;;;5041374;28;20403;-64
2023/06/25 07:54:18;;;;;;;10.68;5.68;;;26.20;44.80;;;;;;5035307;28;20022;-62
2023/06/25 07:56:44;;;;;;;7.25;6.20;;;26.30;44.50;;;;;;5042632;28;20025;-63
2023/06/25 07:59:12;;;;;;;7.80;5.97;;;26.30;43.40;;;;;;5040826;28;20055;-63
2023/06/25 08:01:38;;;;;;;8.18;5.57;;;26.40;44.10;;;;;;5041150;28;20026;-63
2023/06/25 08:04:04;;;;;;;6.07;5.35;;;26.50;44.00;;;;;;5036918;28;20497;-63
2023/06/25 08:06:29;;;;;;;6.93;5.72;;;26.60;43.60;;;;;;5037886;28;20056;-64
2023/06/25 08:08:55;;;;;;;6.60;5.68;;;26.60;43.10;;;;;;5041021;28;20479;-64
2023/06/25 08:11:21;;;;;;;9.70;5.70;;;26.70;43.00;;;;;;5041335;28;20046;-64
2023/06/25 08:13:46;;;;;;;6.72;5.13;;;26.80;42.30;;;;;;5041623;28;20056;-64
2023/06/25 08:16:12;;;;;;;6.32;5.30;;;26.90;42.10;;;;;;5040815;28;20026;-62
2023/06/25 08:18:38;;;;;;;6.30;5.20;;;27.00;41.90;;;;;;5040657;28;20017;-63
2023/06/25 08:21:03;;;;;;;6.57;5.20;;;27.10;42.00;;;;;;5041793;28;20033;-64
2023/06/25 08:23:29;;;;;;;7.95;5.28;;;27.10;41.40;;;;;;5041231;28;20037;-64
2023/06/25 08:25:55;;;;;;;6.68;5.38;;;27.20;41.60;;;;;;5040279;28;20045;-63
2023/06/25 08:28:21;;;;;;;8.95;5.72;;;27.30;41.50;;;;;;5040286;28;20040;-64
2023/06/25 08:30:47;;;;;;;6.55;5.53;;;27.40;41.10;;;;;;5041451;28;20021;-63
2023/06/25 08:33:12;;;;;;;6.60;5.47;;;27.50;41.00;;;;;;5040426;28;20030;-64
2023/06/25 08:35:38;;;;;;;6.55;5.28;;;27.60;41.00;;;;;;5040767;28;20491;-63
2023/06/25 08:38:03;;;;;;;6.05;5.45;;;27.70;40.90;;;;;;5040909;28;20051;-63
2023/06/25 08:40:31;;;;;;;8.25;5.00;;;27.80;38.90;;;;;;5040538;28;20057;-62
2023/06/25 08:42:56;;;;;;;5.40;4.82;;;27.80;39.50;;;;;;5040488;28;20018;-63
2023/06/25 08:45:22;;;;;;;6.85;5.00;;;27.90;39.20;;;;;;5041126;28;20029;-63
2023/06/25 08:47:54;;;;;;;8.25;5.15;;;28.00;39.30;;;;;;5040602;28;20037;-63
2023/06/25 08:50:20;;;;;;;7.30;5.55;;;28.00;38.80;;;;;;5040125;28;20030;-63
2023/06/25 08:52:47;;;;;;;6.60;5.00;;;28.20;38.60;;;;;;5040319;28;20365;-63
2023/06/25 08:55:14;;;;;;;6.72;5.30;;;28.30;39.10;;;;;;5041320;28;20033;-63
2023/06/25 08:57:40;;;;;;;5.72;5.07;;;28.40;38.80;;;;;;5040161;28;20040;-62
2023/06/25 09:00:07;;;;;;;7.03;4.78;;;28.40;37.40;;;;;;5040025;28;20017;-63
2023/06/25 09:02:33;;;;;;;8.00;5.22;;;28.60;38.30;;;;;;5035908;28;20037;-64
2023/06/25 09:05:10;;;;;;;7.72;5.30;;;28.60;37.90;;;;;;5041327;28;20028;-64
2023/06/25 09:07:46;;;;;;;6.43;4.90;;;28.70;37.20;;;;;;5040500;28;20041;-63
2023/06/25 09:10:12;;;;;;;6.78;5.00;;;28.80;37.00;;;;;;5041293;28;20033;-62
2023/06/25 09:12:38;;;;;;;6.07;4.68;;;28.90;36.90;;;;;;5039881;28;20180;-62
2023/06/25 09:15:06;;;;;;;5.30;4.50;;;28.90;36.60;;;;;;5040241;28;20048;-62
2023/06/25 09:17:31;;;;;;;5.15;4.38;;;29.00;35.90;;;;;;5036182;28;20053;-63
2023/06/25 09:20:07;;;;;;;6.88;4.65;;;29.00;36.50;;;;;;5041220;28;20028;-63
2023/06/25 09:22:33;;;;;;;5.88;4.47;;;29.10;33.00;;;;;;5041827;28;20024;-66
2023/06/25 09:25:00;;;;;;;5.53;4.60;;;29.10;34.70;;;;;;5040112;28;20054;-63
2023/06/25 09:27:25;;;;;;;9.82;4.80;;;29.20;35.20;;;;;;5040216;28;20036;-61
2023/06/25 09:29:55;;;;;;;5.10;4.60;;;29.20;34.80;;;;;;5045427;28;20026;-64
2023/06/25 09:32:21;;;;;;;6.72;5.30;;;29.20;33.50;;;;;;5046327;28;20035;-63
2023/06/25 09:34:47;;;;;;;6.03;5.05;;;29.30;33.70;;;;;;5045216;28;20037;-64
2023/06/25 09:37:12;;;;;;;5.60;4.45;;;29.30;33.20;;;;;;5044620;28;20425;-63
2023/06/25 09:39:39;;;;;;;9.45;4.90;;;29.40;33.80;;;;;;4980551;28;20017;-62
2023/06/25 09:42:06;;;;;;;5.53;4.63;;;29.30;32.50;;;;;;5043818;28;20033;-63
2023/06/25 09:44:37;;;;;;;6.38;4.72;;;29.30;32.70;;;;;;5039786;28;20049;-64
2023/06/25 09:47:10;;;;;;;5.13;4.63;;;29.40;32.30;;;;;;5044000;28;20029;-63
2023/06/25 09:49:36;;;;;;;6.72;4.45;;;29.40;30.80;;;;;;5044887;28;20029;-62
2023/06/25 09:52:09;;;;;;;5.47;4.43;;;29.50;32.70;;;;;;5040872;28;20040;-63
2023/06/25 09:54:39;;;;;;;6.03;4.90;;;29.50;32.30;;;;;;5043631;28;20021;-62
2023/06/25 09:57:09;;;;;;;6.68;4.32;;;29.50;32.00;;;;;;5043468;28;20029;-62
2023/06/25 09:59:35;;;;;;;4.90;4.38;;;29.60;32.90;;;;;;5025029;28;20505;-64
2023/06/25 10:02:03;;;;;;;5.25;4.22;;;29.60;33.20;;;;;;5044162;28;20057;-63
2023/06/25 10:04:31;;;;;;;4.78;4.22;;;29.70;32.80;;;;;;5028278;28;20097;-63
2023/06/25 10:06:57;;;;;;;7.80;4.90;;;29.80;33.40;;;;;;5044374;28;20073;-63
2023/06/25 10:09:23;;;;;;;5.57;4.63;;;29.90;32.30;;;;;;5044027;28;20068;-63
2023/06/25 10:11:50;;;;;;;5.03;4.00;;;30.00;32.10;;;;;;5045776;28;20021;-63
2023/06/25 10:14:15;;;;;;;7.55;4.20;;;30.00;31.50;;;;;;5044756;28;20061;-63
2023/06/25 10:16:41;;;;;;;6.10;4.38;;;30.10;31.70;;;;;;5041680;28;20025;-63
2023/06/25 10:19:07;;;;;;;5.50;4.05;;;30.20;32.50;;;;;;5040617;28;20055;-63
2023/06/25 10:21:33;;;;;;;6.20;4.72;;;30.20;31.70;;;;;;5044941;28;20025;-63
2023/06/25 10:24:01;;;;;;;6.03;4.50;;;30.30;32.20;;;;;;5043147;28;20025;-63
2023/06/25 10:26:33;;;;;;;4.75;4.25;;;30.30;31.70;;;;;;5025345;28;20041;-64
2023/06/25 10:29:06;;;;;;;5.70;4.55;;;30.40;31.30;;;;;;5025308;28;20049;-64
2023/06/25 10:31:39;;;;;;;10.68;4.57;;;30.50;28.60;;;;;;5044137;28;20089;-62
2023/06/25 10:34:06;;;;;;;7.18;4.30;;;30.50;31.30;;;;;;5039303;28;20056;-63
2023/06/25 10:36:32;;;;;;;5.43;4.38;;;30.60;30.10;;;;;;5044572;28;20422;-64
2023/06/25 10:38:58;;;;;;;5.78;4.30;;;30.60;29.30;;;;;;5042902;28;20032;-64
2023/06/25 10:41:28;;;;;;;5.25;4.07;;;30.60;29.40;;;;;;5043073;28;20017;-64
2023/06/25 10:43:56;;;;;;;5.25;4.20;;;30.70;30.30;;;;;;5042771;28;20029;-63
2023/06/25 10:46:32;;;;;;;5.68;4.38;;;30.70;30.70;;;;;;5044085;28;20033;-62
2023/06/25 10:49:01;;;;;;;5.20;4.30;;;30.80;29.70;;;;;;5043681;28;20060;-63
2023/06/25 10:51:28;;;;;;;5.28;4.00;;;30.80;30.20;;;;;;5042809;28;20037;-64
2023/06/25 10:53:55;;;;;;;4.38;3.97;;;30.90;28.70;;;;;;5042716;28;20452;-64
2023/06/25 10:56:24;;;;;;;5.05;3.90;;;30.90;29.20;;;;;;5042956;28;20053;-63
2023/06/25 10:58:54;;;;;;;6.85;4.35;;;30.90;28.60;;;;;;5039182;28;20018;-64
2023/06/25 11:01:20;;;;;;;3.92;3.53;;;31.00;28.90;;;;;;5039873;28;20030;-63
2023/06/25 11:03:45;;;;;;;5.05;3.92;;;31.00;29.00;;;;;;5042480;28;20021;-64
2023/06/25 11:06:11;;;;;;;4.53;4.00;;;31.10;29.20;;;;;;5042405;28;20022;-63
2023/06/25 11:08:39;;;;;;;3.95;3.63;;;31.20;29.50;;;;;;5043178;28;20099;-63
2023/06/25 11:11:05;;;;;;;7.63;3.58;;;31.20;29.90;;;;;;5042292;28;20052;-63
2023/06/25 11:13:32;;;;;;;6.43;3.60;;;31.30;29.70;;;;;;5043515;28;20026;-63
2023/06/25 11:15:58;;;;;;;4.60;3.75;;;31.40;29.30;;;;;;5042070;28;20025;-63
2023/06/25 11:18:24;;;;;;;4.47;4.03;;;31.40;29.30;;;;;;5025415;28;20021;-64
2023/06/25 11:20:50;;;;;;;4.45;3.88;;;31.50;29.40;;;;;;5042435;28;20025;-63
2023/06/25 11:23:16;;;;;;;5.38;3.80;;;31.60;28.80;;;;;;5042109;28;20025;-62
2023/06/25 11:25:41;;;;;;;4.80;4.30;;;31.60;28.60;;;;;;5042902;28;20049;-64
2023/06/25 11:28:11;;;;;;;3.85;3.40;;;31.70;27.40;;;;;;5041751;28;20735;-63
2023/06/25 11:30:36;;;;;;;4.70;3.80;;;31.70;27.90;;;;;;5043106;28;20025;-64
2023/06/25 11:33:13;;;;;;;5.50;3.90;;;31.70;28.40;;;;;;5041617;28;20030;-63
2023/06/25 11:35:39;;;;;;;4.63;4.03;;;31.70;28.10;;;;;;5041919;28;20025;-63
2023/06/25 11:38:05;;;;;;;4.50;4.03;;;31.80;28.00;;;;;;5042374;28;20112;-63
2023/06/25 11:40:33;;;;;;;7.60;3.90;;;31.80;27.80;;;;;;5041408;28;20029;-63
2023/06/25 11:42:59;;;;;;;4.07;3.67;;;31.80;27.50;;;;;;5041957;28;20520;-63
2023/06/25 11:45:25;;;;;;;4.53;3.67;;;31.90;27.60;;;;;;5041702;28;20025;-64
2023/06/25 11:47:54;;;;;;;3.90;3.50;;;31.90;27.90;;;;;;5043246;28;20402;-64
2023/06/25 11:50:24;;;;;;;5.07;3.80;;;31.90;27.80;;;;;;5041212;28;20037;-62
2023/06/25 11:52:54;;;;;;;4.68;3.95;;;32.00;27.30;;;;;;5041910;28;20036;-63
2023/06/25 11:55:23;;;;;;;3.90;3.47;;;32.10;27.10;;;;;;5036061;28;20034;-64
2023/06/25 11:57:49;;;;;;;5.10;3.75;;;32.10;27.90;;;;;;5041494;28;20025;-64
2023/06/25 12:00:15;;;;;;;4.38;3.97;;;32.20;26.80;;;;;;5042580;28;20028;-63
2023/06/25 12:02:41;;;;;;;4.50;3.63;;;32.20;27.60;;;;;;5041444;28;20112;-64
2023/06/25 12:05:07;;;;;;;4.43;4.00;;;32.20;27.90;;;;;;5041157;28;20037;-63
2023/06/25 12:07:33;;;;;;;4.45;3.83;;;32.30;27.50;;;;;;5041974;28;20037;-64
2023/06/25 12:09:59;;;;;;;4.28;3.85;;;32.30;27.70;;;;;;5041391;28;20075;-62
2023/06/25 12:12:24;;;;;;;4.47;3.88;;;32.40;27.30;;;;;;5040986;28;20040;-64
2023/06/25 12:14:50;;;;;;;4.45;3.83;;;32.50;26.50;;;;;;5042234;28;20033;-63
2023/06/25 12:17:16;;;;;;;5.15;4.00;;;32.60;26.90;;;;;;5040951;28;20108;-65
2023/06/25 12:19:42;;;;;;;4.53;4.10;;;32.60;25.70;;;;;;5040949;28;20396;-64
2023/06/25 12:22:08;;;;;;;3.95;3.33;;;32.70;26.40;;;;;;5040794;28;20017;-63
2023/06/25 12:24:34;;;;;;;4.18;3.45;;;32.70;26.40;;;;;;5038012;28;20052;-65
2023/06/25 12:27:00;;;;;;;5.40;3.78;;;32.80;27.10;;;;;;5041179;28;20033;-63
2023/06/25 12:29:26;;;;;;;4.20;3.47;;;32.90;26.70;;;;;;5040522;28;20041;-63
2023/06/25 12:31:53;;;;;;;4.78;3.70;;;32.90;26.70;;;;;;5042077;28;20049;-63
2023/06/25 12:34:19;;;;;;;4.07;3.47;;;33.00;26.60;;;;;;5040801;28;20510;-63
2023/06/25 12:36:44;;;;;;;4.28;3.30;;;33.00;26.20;;;;;;5040814;28;20029;-64
2023/06/25 12:39:10;;;;;;;3.97;3.58;;;33.10;26.00;;;;;;4932268;28;20118;-63
2023/06/25 12:41:35;;;;;;;4.07;3.67;;;33.10;25.70;;;;;;5041886;28;20021;-64